sensor_id;sensor_type;location;lat;lon;timestamp;temperature;humidity
13446;DHT22;6795;51.232;3.764;2023-07-09T00:00:59;20.10;99.90
13446;DHT22;6795;51.232;3.764;2023-07-09T00:03:50;20.20;99.90
13446;DHT22;6795;51.232;3.764;2023-07-09T00:07:21;20.20;99.90
13446;DHT22;6795;51.232;3.764;2023-07-09T00:10:25;20.10;99.90
13446;DHT22;6795;51.232;3.764;2023-07-09T00:13:38;20.10;99.90
13446;DHT22;6795;51.232;3.764;2023-07-09T00:16:58;20.10;99.90
13446;DHT22;6795;51.232;3.764;2023-07-09T00:20:20;20.10;99.90
13446;DHT22;6795;51.232;3.764;2023-07-09T00:24:05;20.10;99.90
13446;DHT22;6795;51.232;3.764;2023-07-09T00:27:29;20.10;99.90
13446;DHT22;6795;51.232;3.764;2023-07-09T00:30:39;20.00;99.90
13446;DHT22;6795;51.232;3.764;2023-07-09T00:33:48;19.90;99.90
13446;DHT22;6795;51.232;3.764;2023-07-09T00:37:10;19.90;99.90
13446;DHT22;6795;51.232;3.764;2023-07-09T00:40:31;19.90;99.90
13446;DHT22;6795;51.232;3.764;2023-07-09T00:43:44;19.80;99.90
13446;DHT22;6795;51.232;3.764;2023-07-09T00:47:22;19.70;99.90
13446;DHT22;6795;51.232;3.764;2023-07-09T00:50:56;19.60;99.90
13446;DHT22;6795;51.232;3.764;2023-07-09T00:54:03;19.50;99.90
13446;DHT22;6795;51.232;3.764;2023-07-09T00:57:24;19.50;99.90
13446;DHT22;6795;51.232;3.764;2023-07-09T01:00:37;19.40;99.90
13446;DHT22;6795;51.232;3.764;2023-07-09T01:03:59;19.30;99.90
13446;DHT22;6795;51.232;3.764;2023-07-09T01:07:18;19.30;99.90
13446;DHT22;6795;51.232;3.764;2023-07-09T01:10:28;19.20;99.90
13446;DHT22;6795;51.232;3.764;2023-07-09T01:13:44;19.20;99.90
13446;DHT22;6795;51.232;3.764;2023-07-09T01:22:01;19.30;99.90
13446;DHT22;6795;51.232;3.764;2023-07-09T01:25:11;19.30;99.90
13446;DHT22;6795;51.232;3.764;2023-07-09T01:28:29;19.20;99.90
13446;DHT22;6795;51.232;3.764;2023-07-09T01:31:38;19.10;99.90
13446;DHT22;6795;51.232;3.764;2023-07-09T01:34:51;19.10;99.90
13446;DHT22;6795;51.232;3.764;2023-07-09T01:38:21;19.00;99.90
13446;DHT22;6795;51.232;3.764;2023-07-09T01:42:00;19.00;99.90
13446;DHT22;6795;51.232;3.764;2023-07-09T01:45:10;19.00;99.90
13446;DHT22;6795;51.232;3.764;2023-07-09T01:48:14;19.00;99.90
13446;DHT22;6795;51.232;3.764;2023-07-09T01:51:32;18.90;99.90
13446;DHT22;6795;51.232;3.764;2023-07-09T01:54:51;19.00;99.90
13446;DHT22;6795;51.232;3.764;2023-07-09T01:58:15;19.00;99.90
13446;DHT22;6795;51.232;3.764;2023-07-09T02:01:25;18.80;99.90
13446;DHT22;6795;51.232;3.764;2023-07-09T02:04:36;18.80;99.90
13446;DHT22;6795;51.232;3.764;2023-07-09T02:07:43;18.70;99.90
13446;DHT22;6795;51.232;3.764;2023-07-09T02:10:47;18.70;99.90
13446;DHT22;6795;51.232;3.764;2023-07-09T02:14:07;18.70;99.90
13446;DHT22;6795;51.232;3.764;2023-07-09T02:17:05;18.90;99.90
13446;DHT22;6795;51.232;3.764;2023-07-09T02:22:06;18.90;99.90
13446;DHT22;6795;51.232;3.764;2023-07-09T02:23:36;19.00;99.90
13446;DHT22;6795;51.232;3.764;2023-07-09T02:31:23;19.20;99.90
13446;DHT22;6795;51.232;3.764;2023-07-09T02:34:35;19.30;99.90
13446;DHT22;6795;51.232;3.764;2023-07-09T02:37:57;19.30;99.90
13446;DHT22;6795;51.232;3.764;2023-07-09T02:41:32;19.40;99.90
13446;DHT22;6795;51.232;3.764;2023-07-09T02:44:36;19.30;99.90
13446;DHT22;6795;51.232;3.764;2023-07-09T02:48:05;19.20;99.90
13446;DHT22;6795;51.232;3.764;2023-07-09T02:51:29;19.20;99.90
13446;DHT22;6795;51.232;3.764;2023-07-09T02:54:36;19.10;99.90
13446;DHT22;6795;51.232;3.764;2023-07-09T02:57:56;19.00;99.90
13446;DHT22;6795;51.232;3.764;2023-07-09T03:01:04;19.00;99.90
13446;DHT22;6795;51.232;3.764;2023-07-09T03:04:41;18.90;99.90
13446;DHT22;6795;51.232;3.764;2023-07-09T03:07:33;18.90;99.90
13446;DHT22;6795;51.232;3.764;2023-07-09T03:10:55;18.70;99.90
13446;DHT22;6795;51.232;3.764;2023-07-09T03:14:18;18.50;99.90
13446;DHT22;6795;51.232;3.764;2023-07-09T03:17:50;18.50;99.90
13446;DHT22;6795;51.232;3.764;2023-07-09T03:21:02;18.40;99.90
13446;DHT22;6795;51.232;3.764;2023-07-09T03:24:07;18.30;99.90
13446;DHT22;6795;51.232;3.764;2023-07-09T03:29:39;18.20;99.90
13446;DHT22;6795;51.232;3.764;2023-07-09T03:31:19;18.10;99.90
13446;DHT22;6795;51.232;3.764;2023-07-09T03:34:17;18.10;99.90
13446;DHT22;6795;51.232;3.764;2023-07-09T03:37:17;18.20;99.90
13446;DHT22;6795;51.232;3.764;2023-07-09T03:44:37;18.20;99.90
13446;DHT22;6795;51.232;3.764;2023-07-09T03:48:01;18.20;99.90
13446;DHT22;6795;51.232;3.764;2023-07-09T03:51:01;18.20;99.90
13446;DHT22;6795;51.232;3.764;2023-07-09T03:57:52;18.20;99.90
13446;DHT22;6795;51.232;3.764;2023-07-09T04:01:38;18.20;99.90
13446;DHT22;6795;51.232;3.764;2023-07-09T04:04:55;18.20;99.90
13446;DHT22;6795;51.232;3.764;2023-07-09T04:08:14;18.30;99.90
13446;DHT22;6795;51.232;3.764;2023-07-09T04:11:13;18.20;99.90
13446;DHT22;6795;51.232;3.764;2023-07-09T04:14:25;18.30;99.90
13446;DHT22;6795;51.232;3.764;2023-07-09T04:17:50;18.20;99.90
13446;DHT22;6795;51.232;3.764;2023-07-09T04:21:11;18.20;99.90
13446;DHT22;6795;51.232;3.764;2023-07-09T04:24:09;18.30;99.90
13446;DHT22;6795;51.232;3.764;2023-07-09T04:27:34;18.30;99.90
13446;DHT22;6795;51.232;3.764;2023-07-09T04:34:18;18.40;99.90
13446;DHT22;6795;51.232;3.764;2023-07-09T04:37:29;18.50;99.90
13446;DHT22;6795;51.232;3.764;2023-07-09T04:40:36;18.50;99.90
13446;DHT22;6795;51.232;3.764;2023-07-09T04:43:53;18.60;99.90
13446;DHT22;6795;51.232;3.764;2023-07-09T04:47:00;18.60;99.90
13446;DHT22;6795;51.232;3.764;2023-07-09T04:50:02;18.70;99.90
13446;DHT22;6795;51.232;3.764;2023-07-09T04:53:17;18.80;99.90
13446;DHT22;6795;51.232;3.764;2023-07-09T05:53:11;21.50;99.90
13446;DHT22;6795;51.232;3.764;2023-07-09T05:56:18;21.60;99.90
13446;DHT22;6795;51.232;3.764;2023-07-09T05:59:18;21.80;99.90
13446;DHT22;6795;51.232;3.764;2023-07-09T06:02:48;21.90;99.90
13446;DHT22;6795;51.232;3.764;2023-07-09T06:06:09;22.10;99.90
13446;DHT22;6795;51.232;3.764;2023-07-09T06:09:31;22.30;99.90
13446;DHT22;6795;51.232;3.764;2023-07-09T06:12:35;22.50;99.90
13446;DHT22;6795;51.232;3.764;2023-07-09T06:15:37;22.60;99.90
13446;DHT22;6795;51.232;3.764;2023-07-09T06:18:49;22.80;99.90
13446;DHT22;6795;51.232;3.764;2023-07-09T06:21:56;22.90;99.90
13446;DHT22;6795;51.232;3.764;2023-07-09T06:25:07;23.00;99.90
13446;DHT22;6795;51.232;3.764;2023-07-09T06:28:15;23.30;99.90
13446;DHT22;6795;51.232;3.764;2023-07-09T06:31:59;23.50;99.90
13446;DHT22;6795;51.232;3.764;2023-07-09T06:35:08;23.60;99.90
13446;DHT22;6795;51.232;3.764;2023-07-09T06:38:29;23.70;99.90
13446;DHT22;6795;51.232;3.764;2023-07-09T06:41:51;24.00;99.90
13446;DHT22;6795;51.232;3.764;2023-07-09T06:45:22;24.30;99.90
13446;DHT22;6795;51.232;3.764;2023-07-09T06:52:13;24.60;99.90
13446;DHT22;6795;51.232;3.764;2023-07-09T06:55:22;24.70;99.90
13446;DHT22;6795;51.232;3.764;2023-07-09T06:58:58;24.70;99.90
13446;DHT22;6795;51.232;3.764;2023-07-09T07:02:16;25.00;99.90
13446;DHT22;6795;51.232;3.764;2023-07-09T07:05:26;24.80;99.90
13446;DHT22;6795;51.232;3.764;2023-07-09T07:08:38;24.70;99.90
13446;DHT22;6795;51.232;3.764;2023-07-09T07:12:22;25.00;99.90
13446;DHT22;6795;51.232;3.764;2023-07-09T07:15:16;25.00;99.90
13446;DHT22;6795;51.232;3.764;2023-07-09T07:18:58;25.20;99.90
13446;DHT22;6795;51.232;3.764;2023-07-09T07:32:32;26.00;99.90
13446;DHT22;6795;51.232;3.764;2023-07-09T07:35:40;26.20;99.90
13446;DHT22;6795;51.232;3.764;2023-07-09T07:39:19;26.30;99.90
13446;DHT22;6795;51.232;3.764;2023-07-09T07:46:09;26.20;99.90
13446;DHT22;6795;51.232;3.764;2023-07-09T07:49:18;26.30;99.90
13446;DHT22;6795;51.232;3.764;2023-07-09T07:52:35;26.20;99.90
13446;DHT22;6795;51.232;3.764;2023-07-09T07:55:38;26.40;99.90
13446;DHT22;6795;51.232;3.764;2023-07-09T07:59:02;26.60;99.90
13446;DHT22;6795;51.232;3.764;2023-07-09T08:02:19;26.40;99.90
13446;DHT22;6795;51.232;3.764;2023-07-09T08:05:32;26.40;99.90
13446;DHT22;6795;51.232;3.764;2023-07-09T08:09:02;26.20;99.90
13446;DHT22;6795;51.232;3.764;2023-07-09T08:11:57;26.00;99.90
13446;DHT22;6795;51.232;3.764;2023-07-09T08:15:27;26.30;99.90
13446;DHT22;6795;51.232;3.764;2023-07-09T08:33:22;26.50;99.90
13446;DHT22;6795;51.232;3.764;2023-07-09T08:39:18;26.70;99.90
13446;DHT22;6795;51.232;3.764;2023-07-09T08:43:32;27.50;99.90
13446;DHT22;6795;51.232;3.764;2023-07-09T09:09:35;27.50;99.90
13446;DHT22;6795;51.232;3.764;2023-07-09T09:12:59;29.00;99.90
13446;DHT22;6795;51.232;3.764;2023-07-09T09:16:04;29.40;99.90
13446;DHT22;6795;51.232;3.764;2023-07-09T09:19:22;29.60;99.90
13446;DHT22;6795;51.232;3.764;2023-07-09T09:22:29;29.10;99.90
13446;DHT22;6795;51.232;3.764;2023-07-09T09:25:49;28.70;99.90
13446;DHT22;6795;51.232;3.764;2023-07-09T09:29:37;28.60;99.90
13446;DHT22;6795;51.232;3.764;2023-07-09T09:32:39;28.30;99.90
13446;DHT22;6795;51.232;3.764;2023-07-09T09:35:43;28.00;99.90
13446;DHT22;6795;51.232;3.764;2023-07-09T09:38:48;27.80;99.90
13446;DHT22;6795;51.232;3.764;2023-07-09T09:42:07;27.60;99.90
13446;DHT22;6795;51.232;3.764;2023-07-09T09:45:02;27.60;99.90
13446;DHT22;6795;51.232;3.764;2023-07-09T09:48:29;28.30;99.90
13446;DHT22;6795;51.232;3.764;2023-07-09T09:51:52;28.70;99.90
13446;DHT22;6795;51.232;3.764;2023-07-09T09:55:20;29.30;99.90
13446;DHT22;6795;51.232;3.764;2023-07-09T09:58:59;29.70;99.90
13446;DHT22;6795;51.232;3.764;2023-07-09T10:02:12;29.20;99.90
13446;DHT22;6795;51.232;3.764;2023-07-09T10:05:27;28.80;99.90
13446;DHT22;6795;51.232;3.764;2023-07-09T10:12:32;29.20;99.90
13446;DHT22;6795;51.232;3.764;2023-07-09T10:16:13;29.20;99.90
13446;DHT22;6795;51.232;3.764;2023-07-09T10:19:38;28.50;99.90
13446;DHT22;6795;51.232;3.764;2023-07-09T10:23:19;27.80;99.90
13446;DHT22;6795;51.232;3.764;2023-07-09T10:26:48;27.30;99.90
13446;DHT22;6795;51.232;3.764;2023-07-09T10:30:49;27.20;99.90
13446;DHT22;6795;51.232;3.764;2023-07-09T10:34:02;26.90;99.90
13446;DHT22;6795;51.232;3.764;2023-07-09T10:38:21;26.90;99.90
13446;DHT22;6795;51.232;3.764;2023-07-09T10:42:18;26.50;99.90
13446;DHT22;6795;51.232;3.764;2023-07-09T10:46:04;26.40;99.90
13446;DHT22;6795;51.232;3.764;2023-07-09T10:49:30;26.20;99.90
13446;DHT22;6795;51.232;3.764;2023-07-09T10:53:36;26.40;99.90
13446;DHT22;6795;51.232;3.764;2023-07-09T10:56:39;26.50;99.90
13446;DHT22;6795;51.232;3.764;2023-07-09T11:00:31;26.50;99.90
13446;DHT22;6795;51.232;3.764;2023-07-09T11:03:16;26.50;99.90
13446;DHT22;6795;51.232;3.764;2023-07-09T12:52:51;23.50;99.90
13446;DHT22;6795;51.232;3.764;2023-07-09T12:59:39;23.00;99.90
13446;DHT22;6795;51.232;3.764;2023-07-09T13:10:17;21.80;99.90
13446;DHT22;6795;51.232;3.764;2023-07-09T13:13:57;21.60;99.90
13446;DHT22;6795;51.232;3.764;2023-07-09T13:17:27;21.70;99.90
13446;DHT22;6795;51.232;3.764;2023-07-09T13:20:36;21.60;99.90
13446;DHT22;6795;51.232;3.764;2023-07-09T13:23:53;21.30;99.90
13446;DHT22;6795;51.232;3.764;2023-07-09T13:27:29;21.30;99.90
13446;DHT22;6795;51.232;3.764;2023-07-09T13:52:16;21.30;99.90
13446;DHT22;6795;51.232;3.764;2023-07-09T14:34:04;21.20;99.90
13446;DHT22;6795;51.232;3.764;2023-07-09T14:41:21;24.60;99.90
13446;DHT22;6795;51.232;3.764;2023-07-09T14:47:50;25.80;99.90
13446;DHT22;6795;51.232;3.764;2023-07-09T14:51:14;24.10;99.90
13446;DHT22;6795;51.232;3.764;2023-07-09T14:54:26;24.00;99.90
13446;DHT22;6795;51.232;3.764;2023-07-09T14:57:32;24.00;99.90
13446;DHT22;6795;51.232;3.764;2023-07-09T15:00:43;24.10;99.90
13446;DHT22;6795;51.232;3.764;2023-07-09T15:04:05;23.90;99.90
13446;DHT22;6795;51.232;3.764;2023-07-09T15:11:18;24.20;99.90
13446;DHT22;6795;51.232;3.764;2023-07-09T15:14:59;24.20;99.90
13446;DHT22;6795;51.232;3.764;2023-07-09T15:18:08;24.10;99.90
13446;DHT22;6795;51.232;3.764;2023-07-09T15:22:10;24.30;99.90
13446;DHT22;6795;51.232;3.764;2023-07-09T15:29:07;25.50;99.90
13446;DHT22;6795;51.232;3.764;2023-07-09T15:39:31;25.50;99.90
13446;DHT22;6795;51.232;3.764;2023-07-09T15:43:09;25.00;99.90
13446;DHT22;6795;51.232;3.764;2023-07-09T15:49:54;23.90;99.90
13446;DHT22;6795;51.232;3.764;2023-07-09T15:53:44;24.10;99.90
13446;DHT22;6795;51.232;3.764;2023-07-09T15:57:13;24.60;99.90
13446;DHT22;6795;51.232;3.764;2023-07-09T16:08:25;25.10;99.90
13446;DHT22;6795;51.232;3.764;2023-07-09T16:11:54;24.80;99.90
13446;DHT22;6795;51.232;3.764;2023-07-09T16:15:17;24.80;99.90
13446;DHT22;6795;51.232;3.764;2023-07-09T16:18:34;24.00;99.90
13446;DHT22;6795;51.232;3.764;2023-07-09T16:21:50;24.20;99.90
13446;DHT22;6795;51.232;3.764;2023-07-09T16:25:16;24.60;99.90
13446;DHT22;6795;51.232;3.764;2023-07-09T16:28:21;24.60;99.90
13446;DHT22;6795;51.232;3.764;2023-07-09T16:31:51;24.40;99.90
13446;DHT22;6795;51.232;3.764;2023-07-09T16:35:00;24.10;99.90
13446;DHT22;6795;51.232;3.764;2023-07-09T16:38:12;23.90;99.90
13446;DHT22;6795;51.232;3.764;2023-07-09T16:51:45;24.50;99.90
13446;DHT22;6795;51.232;3.764;2023-07-09T16:55:27;24.10;99.90
13446;DHT22;6795;51.232;3.764;2023-07-09T16:58:54;23.70;99.90
13446;DHT22;6795;51.232;3.764;2023-07-09T17:03:05;23.90;99.90
13446;DHT22;6795;51.232;3.764;2023-07-09T17:05:55;24.40;99.90
13446;DHT22;6795;51.232;3.764;2023-07-09T17:09:00;24.90;99.90
13446;DHT22;6795;51.232;3.764;2023-07-09T17:12:11;24.70;99.90
13446;DHT22;6795;51.232;3.764;2023-07-09T17:15:41;24.10;99.90
13446;DHT22;6795;51.232;3.764;2023-07-09T17:18:33;23.60;99.90
13446;DHT22;6795;51.232;3.764;2023-07-09T17:31:55;23.60;99.90
13446;DHT22;6795;51.232;3.764;2023-07-09T17:35:01;22.20;99.90
13446;DHT22;6795;51.232;3.764;2023-07-09T17:38:30;22.00;99.90
13446;DHT22;6795;51.232;3.764;2023-07-09T17:41:44;21.80;99.90
13446;DHT22;6795;51.232;3.764;2023-07-09T17:52:42;21.70;99.90
13446;DHT22;6795;51.232;3.764;2023-07-09T17:55:54;21.70;99.90
13446;DHT22;6795;51.232;3.764;2023-07-09T17:59:54;21.70;99.90
13446;DHT22;6795;51.232;3.764;2023-07-09T18:33:36;21.10;99.90
13446;DHT22;6795;51.232;3.764;2023-07-09T18:36:38;21.20;99.90
13446;DHT22;6795;51.232;3.764;2023-07-09T18:39:51;21.20;99.90
13446;DHT22;6795;51.232;3.764;2023-07-09T18:43:22;21.10;99.90
13446;DHT22;6795;51.232;3.764;2023-07-09T18:46:59;21.10;99.90
13446;DHT22;6795;51.232;3.764;2023-07-09T18:50:59;21.00;99.90
13446;DHT22;6795;51.232;3.764;2023-07-09T18:54:26;20.90;99.90
13446;DHT22;6795;51.232;3.764;2023-07-09T18:58:27;20.90;99.90
13446;DHT22;6795;51.232;3.764;2023-07-09T19:02:07;20.70;99.90
13446;DHT22;6795;51.232;3.764;2023-07-09T19:37:57;20.60;99.90
13446;DHT22;6795;51.232;3.764;2023-07-09T19:41:18;20.00;99.90
13446;DHT22;6795;51.232;3.764;2023-07-09T19:44:30;19.90;99.90
13446;DHT22;6795;51.232;3.764;2023-07-09T19:48:00;19.90;99.90
13446;DHT22;6795;51.232;3.764;2023-07-09T19:50:59;19.80;99.90
13446;DHT22;6795;51.232;3.764;2023-07-09T20:01:13;19.40;99.90
13446;DHT22;6795;51.232;3.764;2023-07-09T20:05:18;19.30;99.90
13446;DHT22;6795;51.232;3.764;2023-07-09T20:08:39;19.20;99.90
13446;DHT22;6795;51.232;3.764;2023-07-09T20:22:44;18.50;99.90
13446;DHT22;6795;51.232;3.764;2023-07-09T20:29:36;18.30;99.90
13446;DHT22;6795;51.232;3.764;2023-07-09T20:33:11;18.00;99.90
13446;DHT22;6795;51.232;3.764;2023-07-09T20:36:50;18.00;99.90
13446;DHT22;6795;51.232;3.764;2023-07-09T20:40:00;17.90;99.90
13446;DHT22;6795;51.232;3.764;2023-07-09T20:48:17;18.10;99.90
13446;DHT22;6795;51.232;3.764;2023-07-09T20:58:50;17.90;99.90
13446;DHT22;6795;51.232;3.764;2023-07-09T21:01:20;17.80;99.90
13446;DHT22;6795;51.232;3.764;2023-07-09T21:03:56;17.80;99.90
13446;DHT22;6795;51.232;3.764;2023-07-09T21:06:24;17.80;99.90
13446;DHT22;6795;51.232;3.764;2023-07-09T21:08:53;17.70;99.90
13446;DHT22;6795;51.232;3.764;2023-07-09T21:14:59;17.60;99.90
13446;DHT22;6795;51.232;3.764;2023-07-09T21:17:56;17.60;99.90
13446;DHT22;6795;51.232;3.764;2023-07-09T21:20:26;17.60;99.90
13446;DHT22;6795;51.232;3.764;2023-07-09T21:22:56;17.50;99.90
13446;DHT22;6795;51.232;3.764;2023-07-09T21:34:19;17.30;99.90
13446;DHT22;6795;51.232;3.764;2023-07-09T21:41:57;17.10;99.90
13446;DHT22;6795;51.232;3.764;2023-07-09T21:44:26;16.80;99.90
13446;DHT22;6795;51.232;3.764;2023-07-09T21:49:58;16.70;99.90
13446;DHT22;6795;51.232;3.764;2023-07-09T21:52:36;16.60;99.90
13446;DHT22;6795;51.232;3.764;2023-07-09T22:57:20;16.80;99.90
13446;DHT22;6795;51.232;3.764;2023-07-09T23:21:36;16.50;99.90
13446;DHT22;6795;51.232;3.764;2023-07-09T23:45:32;16.10;99.90
